Darstellungsparameter: Aktuell verwendete Einstellungen:
Skalierung der Graphiken ... ?
xyx+y,   Skalierungsfaktor:      Skalierung: Modus: x, Faktor: 1
Darstellungszeitraum ... ?
Vom - - bis: - -   Zeitraum: 26.02.2008 - 26.02.2008
Min/Max/Avg-Anzeige ... ?
Zeige MMA aktuell
Zeige MMA Monat
Zeige MMA alles
Zeige --A aktuell
Zeige --A Monat
Zeige --A alles
Keine MMA-Anzeige
MMA:
Average (ber die Originaldaten)
MMA-Basis: 26.02.2008 - 26.02.2008
Quicknavigation für Darstellung... ?
Tage:      1T, 2T, 3T, 5T -1T -2T -3T -5T +1T +2T +3T +5T
Wochen: 1W, 2W, 3W -1W -2W -3W +1W +2W +3W
Monate: 1M, 3M, 6M -1M -3M -6M +1M +3M +6M
Jahre:    1J, 3J, 5J, 10J -1J -3J -5J -10J +1J +3J +5J +10J
Nutze für die Darstellung ... ?
Originaldaten oder Mittelwerte auf ...
Stundenbasis Tagesbasis Wochenbasis
Monatsbasis Jahresbasis      Datenbasis: Original-Daten
Darstellen als:
Statistik (Auto) Statistik J:M      Darstellung:
Zur Graphik,    zurück zur Übersicht aller Sensoren.
 
Tabellarische Datenbersicht: ?
 
Sensor: Nr:Datum:Temp:Abs-Feuchte:Windchill:Wind:
Aussen-T/F 1 26-02-2008 00:09:02 10.3 C 6.42 g/m*3 10.3 C 0 km/h
2 26-02-2008 00:21:02 10.4 C 6.55 g/m*3 10.4 C 0 km/h
3 26-02-2008 00:33:02 10.5 C 6.6 g/m*3 10.5 C 0 km/h
4 26-02-2008 00:45:02 10.4 C 6.55 g/m*3 10.4 C 0 km/h
5 26-02-2008 00:57:02 10.5 C 6.6 g/m*3 10.5 C 0 km/h
6 26-02-2008 01:09:02 10.1 C 6.52 g/m*3 10.1 C 0 km/h
7 26-02-2008 01:21:02 9.7 C 6.55 g/m*3 9.7 C 0 km/h
8 26-02-2008 01:33:02 9.4 C 6.6 g/m*3 9.4 C 0 km/h
9 26-02-2008 01:45:01 9.7 C 6.82 g/m*3 9.7 C 0 km/h
10 26-02-2008 01:57:01 10 C 6.77 g/m*3 10 C 0 km/h
11 26-02-2008 02:09:01 9.8 C 6.77 g/m*3 9.8 C 0 km/h
12 26-02-2008 02:21:02 9.7 C 6.82 g/m*3 9.7 C 0 km/h
13 26-02-2008 02:33:02 9.9 C 6.82 g/m*3 9.9 C 0 km/h
14 26-02-2008 02:46:03 10.2 C 6.85 g/m*3 10.2 C 0 km/h
15 26-02-2008 02:58:03 10.4 C 6.84 g/m*3 10.4 C 0 km/h
16 26-02-2008 03:10:03 10.8 C 6.82 g/m*3 10.8 C 0 km/h
17 26-02-2008 03:22:03 10.7 C 6.68 g/m*3 10.7 C 0 km/h
18 26-02-2008 03:34:02 10.7 C 6.78 g/m*3 10.7 C 0 km/h
19 26-02-2008 03:46:02 10.6 C 6.73 g/m*3 10.6 C 0 km/h
20 26-02-2008 03:58:02 10.5 C 6.69 g/m*3 10.5 C 0 km/h
21 26-02-2008 04:10:02 10.4 C 6.75 g/m*3 10.4 C 0 km/h
22 26-02-2008 04:22:02 10.5 C 6.89 g/m*3 10.5 C 0 km/h
23 26-02-2008 04:34:02 10.5 C 6.89 g/m*3 10.5 C 0 km/h
24 26-02-2008 04:46:02 10.5 C 6.79 g/m*3 10.5 C 0 km/h
25 26-02-2008 04:58:02 10.4 C 6.75 g/m*3 10.4 C 0 km/h
Sensor: Nr:Datum:Temp:Abs-Feuchte:Windchill:Wind:
Aussen-T/F 26 26-02-2008 05:10:01 10.3 C 6.7 g/m*3 10.3 C 0 km/h
27 26-02-2008 05:22:02 10.6 C 6.83 g/m*3 10.6 C 0 km/h
28 26-02-2008 05:34:02 10.6 C 6.73 g/m*3 10.6 C 0 km/h
29 26-02-2008 05:46:02 10.5 C 6.69 g/m*3 10.5 C 0 km/h
30 26-02-2008 05:58:02 10.4 C 6.75 g/m*3 10.4 C 0 km/h
31 26-02-2008 06:10:03 10.4 C 6.75 g/m*3 10.4 C 0 km/h
32 26-02-2008 06:22:02 10.4 C 6.65 g/m*3 10.4 C 0 km/h
33 26-02-2008 06:34:02 10.4 C 6.55 g/m*3 10.4 C 0 km/h
34 26-02-2008 06:46:01 10.4 C 6.55 g/m*3 10.4 C 0 km/h
35 26-02-2008 06:58:01 10.3 C 6.51 g/m*3 10.3 C 0 km/h
36 26-02-2008 07:10:01 10.1 C 6.43 g/m*3 10.1 C 0 km/h
37 26-02-2008 07:22:02 10 C 6.39 g/m*3 10 C 0 km/h
38 26-02-2008 07:34:01 10 C 6.39 g/m*3 10 C 0 km/h
39 26-02-2008 07:46:02 10 C 6.39 g/m*3 10 C 0 km/h
40 26-02-2008 07:58:02 10 C 6.39 g/m*3 10 C 0 km/h
41 26-02-2008 08:10:01 10.2 C 6.47 g/m*3 10.2 C 0 km/h
42 26-02-2008 08:22:02 10.5 C 6.5 g/m*3 10.5 C 0 km/h
43 26-02-2008 08:34:02 10.8 C 6.42 g/m*3 10.8 C 0 km/h
44 26-02-2008 08:46:02 11 C 6.31 g/m*3 11 C 0 km/h
45 26-02-2008 08:58:02 11.1 C 6.14 g/m*3 11.1 C 0 km/h
46 26-02-2008 09:10:02 11.4 C 5.95 g/m*3 11.4 C 0 km/h
47 26-02-2008 09:22:02 11.7 C 5.86 g/m*3 11.7 C 0 km/h
48 26-02-2008 09:34:02 11.9 C 5.82 g/m*3 11.9 C 0 km/h
49 26-02-2008 09:46:02 12.2 C 5.5 g/m*3 12.2 C 0 km/h
50 26-02-2008 09:58:02 12.6 C 5.42 g/m*3 12.6 C 0 km/h
Sensor: Nr:Datum:Temp:Abs-Feuchte:Windchill:Wind:
Aussen-T/F 51 26-02-2008 10:10:02 13.1 C 5.25 g/m*3 13.1 C 0 km/h
52 26-02-2008 10:22:02 13.5 C 5.26 g/m*3 13.5 C 0 km/h
53 26-02-2008 10:34:02 13.5 C 5.26 g/m*3 13.5 C 0 km/h
54 26-02-2008 10:46:01 13.5 C 5.26 g/m*3 13.5 C 0 km/h
55 26-02-2008 10:58:01 13.7 C 5.33 g/m*3 13.7 C 0 km/h
56 26-02-2008 11:10:01 13.7 C 5.33 g/m*3 13.7 C 0 km/h
57 26-02-2008 11:22:02 13.8 C 5.36 g/m*3 13.8 C 0 km/h
58 26-02-2008 11:34:01 13.7 C 5.45 g/m*3 13.7 C 0 km/h
59 26-02-2008 11:46:02 13.7 C 5.45 g/m*3 13.7 C 0 km/h
60 26-02-2008 11:58:02 13.6 C 5.41 g/m*3 13.6 C 0 km/h
61 26-02-2008 12:10:01 13.5 C 5.5 g/m*3 13.5 C 0 km/h
62 26-02-2008 12:22:02 13.4 C 5.46 g/m*3 13.4 C 0 km/h
63 26-02-2008 12:34:02 13.4 C 5.58 g/m*3 13.4 C 0 km/h
64 26-02-2008 12:46:02 13.4 C 5.58 g/m*3 13.4 C 0 km/h
65 26-02-2008 12:58:02 13.4 C 5.58 g/m*3 13.4 C 0 km/h
66 26-02-2008 13:10:02 13.4 C 5.7 g/m*3 13.4 C 0 km/h
67 26-02-2008 13:22:02 13.4 C 5.81 g/m*3 13.4 C 0 km/h
68 26-02-2008 13:34:02 13.4 C 5.81 g/m*3 13.4 C 0 km/h
69 26-02-2008 13:46:02 13.5 C 5.97 g/m*3 13.5 C 0 km/h
70 26-02-2008 13:58:02 13.5 C 6.08 g/m*3 13.5 C 0 km/h
71 26-02-2008 14:10:02 13.5 C 6.08 g/m*3 13.5 C 0 km/h
72 26-02-2008 14:22:03 13.4 C 6.04 g/m*3 13.4 C 0 km/h
73 26-02-2008 14:34:02 13.4 C 6.16 g/m*3 13.4 C 0 km/h
74 26-02-2008 14:46:02 13.4 C 6.16 g/m*3 13.4 C 0 km/h
75 26-02-2008 14:58:02 13.4 C 6.16 g/m*3 13.4 C 0 km/h
Sensor: Nr:Datum:Temp:Abs-Feuchte:Windchill:Wind:
Aussen-T/F 76 26-02-2008 15:10:01 13.2 C 6.09 g/m*3 13.2 C 0 km/h
77 26-02-2008 15:22:02 13.2 C 6.2 g/m*3 13.2 C 0 km/h
78 26-02-2008 15:34:01 13.1 C 6.05 g/m*3 13.1 C 0 km/h
79 26-02-2008 15:46:02 13 C 6.12 g/m*3 13 C 0 km/h
80 26-02-2008 15:58:02 12.9 C 6.2 g/m*3 12.9 C 0 km/h
81 26-02-2008 16:10:01 12.8 C 6.16 g/m*3 12.8 C 0 km/h
82 26-02-2008 16:22:02 12.7 C 6.23 g/m*3 12.7 C 0 km/h
83 26-02-2008 16:34:02 12.4 C 6.45 g/m*3 12.4 C 0 km/h
84 26-02-2008 16:46:02 12 C 6.5 g/m*3 12 C 0 km/h
85 26-02-2008 16:58:02 12 C 6.5 g/m*3 12 C 0 km/h
86 26-02-2008 17:10:02 11.8 C 6.63 g/m*3 11.8 C 0 km/h
87 26-02-2008 17:22:02 11.8 C 6.74 g/m*3 11.8 C 0 km/h
88 26-02-2008 17:34:02 11.2 C 6.99 g/m*3 11.2 C 0 km/h
89 26-02-2008 17:46:01 10.9 C 7.16 g/m*3 10.9 C 0 km/h
90 26-02-2008 17:58:01 10.8 C 7.22 g/m*3 10.8 C 0 km/h
91 26-02-2008 18:10:01 10.5 C 7.37 g/m*3 10.5 C 0 km/h
92 26-02-2008 18:22:01 10.4 C 7.61 g/m*3 10.4 C 0 km/h
93 26-02-2008 18:34:02 10.4 C 7.61 g/m*3 10.4 C 0 km/h
94 26-02-2008 18:46:02 10.5 C 7.57 g/m*3 10.5 C 0 km/h
95 26-02-2008 18:58:02 10.4 C 7.52 g/m*3 10.4 C 0 km/h
96 26-02-2008 19:10:02 10.4 C 7.52 g/m*3 10.4 C 0 km/h
97 26-02-2008 19:22:02 10.5 C 7.57 g/m*3 10.5 C 0 km/h
98 26-02-2008 19:34:02 10.5 C 7.57 g/m*3 10.5 C 0 km/h
99 26-02-2008 19:46:02 10.3 C 7.57 g/m*3 10.3 C 0 km/h
100 26-02-2008 19:58:02 10.1 C 7.66 g/m*3 10.1 C 0 km/h
Sensor: Nr:Datum:Temp:Abs-Feuchte:Windchill:Wind:
Aussen-T/F 101 26-02-2008 20:10:02 10.1 C 7.75 g/m*3 10.1 C 0 km/h
102 26-02-2008 20:22:02 10.1 C 7.75 g/m*3 10.1 C 0 km/h
103 26-02-2008 20:34:02 10.2 C 7.8 g/m*3 10.2 C 0 km/h
104 26-02-2008 20:46:02 10.1 C 7.75 g/m*3 10.1 C 0 km/h
105 26-02-2008 20:58:02 9.8 C 7.33 g/m*3 9.8 C 0 km/h
106 26-02-2008 21:10:03 9.7 C 6.27 g/m*3 9.7 C 0 km/h
107 26-02-2008 21:22:03 9.3 C 6.2 g/m*3 9.3 C 0 km/h
108 26-02-2008 21:34:02 9.4 C 6.15 g/m*3 9.4 C 0 km/h
109 26-02-2008 21:46:02 9.2 C 6.16 g/m*3 9.2 C 0 km/h
110 26-02-2008 21:58:02 9.3 C 6.2 g/m*3 9.3 C 0 km/h
111 26-02-2008 22:10:02 9.3 C 6.29 g/m*3 9.3 C 0 km/h
112 26-02-2008 22:23:03 9.2 C 6.16 g/m*3 9.2 C 0 km/h
113 26-02-2008 22:35:04 9 C 6.17 g/m*3 9 C 0 km/h
114 26-02-2008 22:47:04 8.9 C 6.22 g/m*3 8.9 C 0 km/h
115 26-02-2008 22:59:04 8.6 C 6.02 g/m*3 8.6 C 0 km/h
116 26-02-2008 23:11:04 8.7 C 5.97 g/m*3 8.7 C 0 km/h
117 26-02-2008 23:23:04 8.4 C 5.94 g/m*3 8.4 C 0 km/h
118 26-02-2008 23:35:04 8.1 C 5.91 g/m*3 8.1 C 0 km/h
119 26-02-2008 23:47:04 8.1 C 5.74 g/m*3 8.1 C 0 km/h
120 26-02-2008 23:59:04 8 C 5.79 g/m*3 8 C 0 km/h

Legende:
   Min
   Max


Maximal/Minimal-Werte vom 26.02.2008 - 26.02.2008

Sensor Min Max Avg
Temp
(Aussen-T/F)
8 °C
26-02-2008  23:59:04
13.8 °C
26-02-2008  11:22:02
11.11 °C
Abs-Feuchte
(Aussen-T/F)
5.25 g/m*3
26-02-2008  10:10:02
7.8 g/m*3
26-02-2008  20:34:02
6.37 g/m*3
Windchill
(Aussen-T/F)
8 C
26-02-2008  23:59:04
13.8 C
26-02-2008  11:22:02
11.02 C

Die Daten stammen von einer Davis Vantage Pro 2 Wetter-Station und werden unter Linux mit der Software wview2wettercgi und aufbereitet. Alle Angaben erfolgen ohne Gewähr für ihre Vollständigkeit oder Richtigkeit.
Kontakt: Rainer Krienke krienke@uni-koblenz.de . Meine Webseiten an der Uni Koblenz oder privat.
Version: $Revision: 0.78 $